createdAt,value
2023-03-07T00:01:35.528Z,70.66
2023-03-07T00:04:07.733Z,70.30
2023-03-07T00:06:34.430Z,71.62
2023-03-07T00:09:02.965Z,70.64
2023-03-07T00:11:29.985Z,70.52
2023-03-07T00:13:56.614Z,70.39
2023-03-07T00:16:24.787Z,70.53
2023-03-07T00:18:51.610Z,70.78
2023-03-07T00:21:20.849Z,70.67
2023-03-07T00:23:48.423Z,70.98
2023-03-07T00:26:17.445Z,71.19
2023-03-07T00:28:46.195Z,70.92
2023-03-07T00:31:13.363Z,71.64
2023-03-07T00:33:40.316Z,71.66
2023-03-07T00:36:16.445Z,71.70
2023-03-07T00:38:43.197Z,71.74
2023-03-07T00:41:13.247Z,72.55
2023-03-07T00:43:40.522Z,71.65
2023-03-07T00:46:07.113Z,71.28
2023-03-07T00:48:36.211Z,72.11
2023-03-07T00:51:03.812Z,71.50
2023-03-07T00:53:30.556Z,71.93
2023-03-07T00:56:06.993Z,71.99
2023-03-07T00:58:36.454Z,71.30
2023-03-07T01:01:05.443Z,70.85
2023-03-07T01:03:33.202Z,71.40
2023-03-07T01:06:04.136Z,71.84
2023-03-07T01:08:30.746Z,72.32
2023-03-07T01:11:02.104Z,72.33
2023-03-07T01:13:31.678Z,72.75
2023-03-07T01:16:22.164Z,72.20
2023-03-07T01:18:51.679Z,71.70
2023-03-07T01:21:33.748Z,71.36
2023-03-07T01:24:00.532Z,71.97
2023-03-07T01:26:30.749Z,71.98
2023-03-07T01:28:59.643Z,72.15
2023-03-07T01:31:27.658Z,71.78
2023-03-07T01:33:54.575Z,71.89
2023-03-07T01:36:22.837Z,71.44
2023-03-07T01:38:49.906Z,72.26
2023-03-07T01:41:17.000Z,72.42
2023-03-07T01:43:43.918Z,72.62
2023-03-07T01:46:25.088Z,71.83
2023-03-07T01:49:07.665Z,71.79
2023-03-07T01:51:36.973Z,71.84
2023-03-07T01:54:06.499Z,72.03
2023-03-07T01:56:34.541Z,71.73
2023-03-07T01:59:02.757Z,71.81
2023-03-07T02:01:31.762Z,71.51
2023-03-07T02:04:21.171Z,72.06
2023-03-07T02:06:47.703Z,72.09
2023-03-07T02:09:19.052Z,72.40
2023-03-07T02:11:47.913Z,73.03
2023-03-07T02:14:14.601Z,72.58
2023-03-07T02:16:41.817Z,72.86
2023-03-07T02:19:28.971Z,73.60
2023-03-07T02:22:07.905Z,73.56
2023-03-07T02:25:12.689Z,73.25
2023-03-07T02:27:39.935Z,73.00
2023-03-07T02:30:08.276Z,73.45
2023-03-07T02:32:34.948Z,74.21
2023-03-07T02:35:01.753Z,73.69
2023-03-07T02:37:37.848Z,73.41
2023-03-07T02:40:09.108Z,73.90
2023-03-07T02:42:39.120Z,73.65
2023-03-07T02:45:09.345Z,74.04
2023-03-07T02:47:37.019Z,74.04
2023-03-07T02:50:04.464Z,74.68
2023-03-07T02:52:31.159Z,75.15
2023-03-07T02:54:57.864Z,74.08
2023-03-07T02:57:24.442Z,73.82
2023-03-07T02:59:51.050Z,73.46
2023-03-07T03:02:17.935Z,74.03
2023-03-07T03:04:44.504Z,73.79
2023-03-07T03:07:11.113Z,73.87
2023-03-07T03:09:37.685Z,74.02
2023-03-07T03:12:04.458Z,74.14
2023-03-07T03:14:31.026Z,74.05
2023-03-07T03:16:57.606Z,74.70
2023-03-07T03:19:24.246Z,74.59
2023-03-07T03:21:50.986Z,74.92
2023-03-07T03:24:17.566Z,73.93
2023-03-07T03:26:44.131Z,74.51
2023-03-07T03:29:11.229Z,74.51
2023-03-07T03:31:37.896Z,74.58
2023-03-07T03:34:04.641Z,74.23
2023-03-07T03:36:31.465Z,73.88
2023-03-07T03:38:59.514Z,74.01
2023-03-07T03:41:26.592Z,73.16
2023-03-07T03:43:55.922Z,73.75
2023-03-07T03:46:22.592Z,73.83
2023-03-07T03:48:53.765Z,73.16
2023-03-07T03:51:20.883Z,73.04
2023-03-07T03:53:47.912Z,73.48
2023-03-07T03:56:18.355Z,73.08
2023-03-07T03:58:48.592Z,73.42
2023-03-07T04:01:15.770Z,73.97
2023-03-07T04:03:45.201Z,74.23
2023-03-07T04:06:14.760Z,74.10
2023-03-07T04:08:41.755Z,74.11
2023-03-07T04:11:08.345Z,73.95
2023-03-07T04:13:36.061Z,73.88
2023-03-07T04:16:03.631Z,75.24
2023-03-07T04:18:30.426Z,75.12
2023-03-07T04:20:57.685Z,74.79
2023-03-07T04:23:25.298Z,74.46
2023-03-07T04:25:55.137Z,75.62
2023-03-07T04:28:23.937Z,74.46
2023-03-07T04:30:50.882Z,75.76
2023-03-07T04:33:17.388Z,75.51
2023-03-07T04:35:44.063Z,74.43
2023-03-07T04:38:10.578Z,74.29
2023-03-07T04:40:37.258Z,74.43
2023-03-07T04:43:04.023Z,75.32
2023-03-07T04:45:32.272Z,75.42
2023-03-07T04:47:58.845Z,74.92
2023-03-07T04:50:27.621Z,75.31
2023-03-07T04:52:54.148Z,74.87
2023-03-07T04:55:20.767Z,75.61
2023-03-07T04:57:47.550Z,74.86
2023-03-07T05:00:14.594Z,75.71
2023-03-07T05:02:41.149Z,75.09
2023-03-07T05:05:07.952Z,74.85
2023-03-07T05:07:34.588Z,75.94
2023-03-07T05:10:01.297Z,75.00
2023-03-07T05:12:28.291Z,75.53
2023-03-07T05:14:54.874Z,74.96
2023-03-07T05:17:21.596Z,75.64
2023-03-07T05:19:48.136Z,74.97
2023-03-07T05:22:14.949Z,75.40
2023-03-07T05:24:41.485Z,75.44
2023-03-07T05:27:08.046Z,75.02
2023-03-07T05:29:37.574Z,74.56
2023-03-07T05:32:07.262Z,74.79
2023-03-07T05:34:34.015Z,74.65
2023-03-07T05:37:00.771Z,74.82
2023-03-07T05:39:29.736Z,75.19
2023-03-07T05:41:58.473Z,75.33
2023-03-07T05:44:34.034Z,75.19
2023-03-07T05:47:01.013Z,74.93
2023-03-07T05:49:35.130Z,74.27
2023-03-07T05:52:01.861Z,74.41
2023-03-07T05:54:28.361Z,74.41
2023-03-07T05:56:54.897Z,74.69
2023-03-07T05:59:21.534Z,74.78
2023-03-07T06:01:48.104Z,74.41
2023-03-07T06:04:14.700Z,74.30
2023-03-07T06:06:41.227Z,74.14
2023-03-07T06:09:07.753Z,74.08
2023-03-07T06:11:34.494Z,73.85
2023-03-07T06:14:01.002Z,73.73
2023-03-07T06:16:27.680Z,73.58
2023-03-07T06:19:01.425Z,73.67
2023-03-07T06:21:39.567Z,73.45
2023-03-07T06:24:06.788Z,73.19
2023-03-07T06:26:34.338Z,72.99
2023-03-07T06:29:20.355Z,72.78
2023-03-07T06:31:53.593Z,71.78
2023-03-07T06:34:23.253Z,71.94
2023-03-07T06:37:00.480Z,71.96
2023-03-07T06:39:31.533Z,71.54
2023-03-07T06:42:02.931Z,71.31
2023-03-07T06:44:29.614Z,71.33
2023-03-07T06:46:56.304Z,71.69
2023-03-07T06:49:22.877Z,71.23
2023-03-07T06:51:52.395Z,70.31
2023-03-07T06:54:19.188Z,70.87
2023-03-07T06:56:45.888Z,70.05
2023-03-07T06:59:12.524Z,70.14
2023-03-07T07:01:53.409Z,70.25
2023-03-07T07:04:20.335Z,69.33
2023-03-07T07:07:00.189Z,68.20
2023-03-07T07:09:32.842Z,67.59
2023-03-07T07:11:59.774Z,67.76
2023-03-07T07:14:30.826Z,67.85
2023-03-07T07:17:03.121Z,66.17
2023-03-07T07:19:29.727Z,65.24
2023-03-07T07:21:56.286Z,65.17
2023-03-07T07:24:25.979Z,64.32
2023-03-07T07:26:59.365Z,64.52
2023-03-07T07:29:26.101Z,63.27
2023-03-07T07:31:52.796Z,63.60
2023-03-07T07:34:22.320Z,61.29
2023-03-07T07:36:49.757Z,60.75
2023-03-07T07:39:16.528Z,61.02
2023-03-07T07:41:43.524Z,60.00
2023-03-07T07:44:13.063Z,59.08
2023-03-07T07:46:46.757Z,58.62
2023-03-07T07:49:18.575Z,57.78
2023-03-07T07:54:33.111Z,56.47
2023-03-07T07:57:40.721Z,56.33
2023-03-07T08:00:46.276Z,56.52
2023-03-07T08:03:53.819Z,54.98
2023-03-07T08:11:18.129Z,54.41
2023-03-07T08:14:30.078Z,53.88
2023-03-07T08:17:27.909Z,53.90
2023-03-07T08:23:48.887Z,52.95
2023-03-07T08:29:29.480Z,51.14
2023-03-07T08:31:57.913Z,49.72
2023-03-07T08:34:24.888Z,50.28
2023-03-07T08:36:51.485Z,49.90
2023-03-07T08:39:19.774Z,48.84
2023-03-07T08:41:58.179Z,48.77
2023-03-07T08:44:26.106Z,48.91
2023-03-07T08:46:52.653Z,49.68
2023-03-07T08:49:19.287Z,49.33
2023-03-07T08:51:51.697Z,48.46
2023-03-07T08:54:21.358Z,47.74
2023-03-07T08:56:48.124Z,46.18
2023-03-07T08:59:14.737Z,46.48
2023-03-07T09:01:43.791Z,44.29
2023-03-07T09:04:10.678Z,44.34
2023-03-07T09:06:45.760Z,43.13
2023-03-07T09:09:12.622Z,40.62
2023-03-07T09:11:41.730Z,38.96
2023-03-07T09:14:17.755Z,39.36
2023-03-07T09:16:44.494Z,39.59
2023-03-07T09:19:11.498Z,39.06
2023-03-07T09:21:38.197Z,37.92
2023-03-07T09:24:05.484Z,38.52
2023-03-07T09:26:33.949Z,38.14
2023-03-07T09:29:00.593Z,37.85
2023-03-07T09:31:28.747Z,37.82
2023-03-07T09:33:58.724Z,37.78
2023-03-07T09:36:28.557Z,36.42
2023-03-07T09:38:58.619Z,35.40
2023-03-07T09:41:59.525Z,35.52
2023-03-07T09:44:36.839Z,37.63
2023-03-07T09:47:18.417Z,39.33
2023-03-07T09:49:47.512Z,40.56
2023-03-07T09:52:22.047Z,39.78
2023-03-07T09:55:00.618Z,39.54
2023-03-07T09:57:52.237Z,40.41
2023-03-07T10:00:38.417Z,40.23
2023-03-07T10:03:11.165Z,40.87
2023-03-07T10:05:45.409Z,38.77
2023-03-07T10:08:18.110Z,37.90
2023-03-07T10:11:17.684Z,37.92
2023-03-07T10:14:10.172Z,39.78
2023-03-07T10:16:58.433Z,38.93
2023-03-07T10:19:34.249Z,39.95
2023-03-07T10:22:12.449Z,40.41
2023-03-07T10:24:53.547Z,41.80
2023-03-07T10:27:30.020Z,41.47
2023-03-07T10:30:10.712Z,41.31
2023-03-07T10:33:15.568Z,40.26
2023-03-07T10:35:44.360Z,40.21
2023-03-07T10:38:24.356Z,40.40
2023-03-07T10:41:00.808Z,40.94
2023-03-07T10:43:31.922Z,41.87
2023-03-07T10:46:27.647Z,42.04
2023-03-07T10:49:19.968Z,42.28
2023-03-07T10:51:49.337Z,42.29
2023-03-07T10:54:30.020Z,42.32
2023-03-07T10:57:14.561Z,42.60
2023-03-07T10:59:55.419Z,42.06
2023-03-07T11:02:45.782Z,43.45
2023-03-07T11:05:32.658Z,44.66
2023-03-07T11:08:00.670Z,44.91
2023-03-07T11:10:39.765Z,44.76
2023-03-07T11:13:26.538Z,45.43
2023-03-07T11:16:11.541Z,44.88
2023-03-07T11:18:43.552Z,46.51
2023-03-07T11:21:30.302Z,45.10
2023-03-07T11:24:02.824Z,46.44
2023-03-07T11:26:44.272Z,46.91
2023-03-07T11:29:13.804Z,46.86
2023-03-07T11:31:58.686Z,46.96
2023-03-07T11:34:34.386Z,47.04
2023-03-07T11:37:17.371Z,46.81
2023-03-07T11:40:30.220Z,47.10
2023-03-07T11:43:21.189Z,48.49
2023-03-07T11:49:26.839Z,49.60
2023-03-07T11:52:02.427Z,49.31
2023-03-07T11:54:46.846Z,49.90
2023-03-07T11:57:31.736Z,50.23
2023-03-07T12:00:04.066Z,50.21
2023-03-07T12:03:08.270Z,49.55
2023-03-07T12:05:51.990Z,49.97
2023-03-07T12:08:38.021Z,49.42
2023-03-07T12:11:38.526Z,49.38
2023-03-07T12:14:34.327Z,48.74
2023-03-07T12:17:30.082Z,48.61
2023-03-07T12:20:28.975Z,47.88
2023-03-07T12:23:09.048Z,47.74
2023-03-07T12:25:45.865Z,47.08
2023-03-07T12:28:21.886Z,46.90
2023-03-07T12:31:16.271Z,47.45
2023-03-07T12:34:07.319Z,46.34
2023-03-07T12:37:13.045Z,46.72
2023-03-07T12:39:47.834Z,46.56
2023-03-07T12:42:38.782Z,45.31
2023-03-07T12:45:12.715Z,43.16
2023-03-07T12:47:39.300Z,43.66
2023-03-07T12:50:22.479Z,44.53
2023-03-07T12:53:35.535Z,43.45
2023-03-07T12:56:04.982Z,42.47
2023-03-07T12:58:37.360Z,43.15
2023-03-07T13:01:13.769Z,43.14
2023-03-07T13:04:21.372Z,42.76
2023-03-07T13:06:49.088Z,43.98
2023-03-07T13:09:23.538Z,44.75
2023-03-07T13:12:08.285Z,43.95
2023-03-07T13:15:02.258Z,43.98
2023-03-07T13:17:31.851Z,44.28
2023-03-07T13:20:14.794Z,44.61
2023-03-07T13:22:41.459Z,44.34
2023-03-07T13:25:21.413Z,45.02
2023-03-07T13:27:48.940Z,45.15
2023-03-07T13:30:19.622Z,44.62
2023-03-07T13:32:49.047Z,43.04
2023-03-07T13:35:44.856Z,43.12
2023-03-07T13:38:11.346Z,43.42
2023-03-07T13:40:47.068Z,43.89
2023-03-07T13:43:25.618Z,44.30
2023-03-07T13:45:55.511Z,43.95
2023-03-07T13:48:28.159Z,43.94
2023-03-07T13:50:54.959Z,43.52
2023-03-07T13:53:29.712Z,44.34
2023-03-07T13:56:14.459Z,46.47
2023-03-07T13:59:25.652Z,45.83
2023-03-07T14:01:59.129Z,45.07
2023-03-07T14:04:45.270Z,43.48
2023-03-07T14:07:27.614Z,42.71
2023-03-07T14:10:05.453Z,44.41
2023-03-07T14:12:57.665Z,43.78
2023-03-07T14:15:45.509Z,43.88
2023-03-07T14:18:18.046Z,44.20
2023-03-07T14:21:15.294Z,44.45
2023-03-07T14:24:12.808Z,44.95
2023-03-07T14:26:44.738Z,44.58
2023-03-07T14:29:20.039Z,44.70
2023-03-07T14:31:48.218Z,45.78
2023-03-07T14:34:37.108Z,44.80
2023-03-07T14:37:21.366Z,45.96
2023-03-07T14:40:01.266Z,45.69
2023-03-07T14:43:01.820Z,45.37
2023-03-07T14:45:44.396Z,46.03
2023-03-07T14:48:30.104Z,44.70
2023-03-07T14:51:05.282Z,45.92
2023-03-07T14:53:35.090Z,45.56
2023-03-07T14:56:10.561Z,46.60
2023-03-07T14:58:49.711Z,48.67
2023-03-07T15:01:18.347Z,49.25
2023-03-07T15:03:54.936Z,49.68
2023-03-07T15:06:24.226Z,50.41
2023-03-07T15:08:52.865Z,50.43
2023-03-07T15:11:38.165Z,50.95
2023-03-07T15:14:13.762Z,50.87
2023-03-07T15:16:49.323Z,50.29
2023-03-07T15:19:35.147Z,50.46
2023-03-07T15:22:04.598Z,50.48
2023-03-07T15:24:34.108Z,51.46
2023-03-07T15:27:02.219Z,52.33
2023-03-07T15:29:30.585Z,53.18
2023-03-07T15:31:59.965Z,52.64
2023-03-07T15:34:35.075Z,52.44
2023-03-07T15:37:20.515Z,53.98
2023-03-07T15:40:10.281Z,53.92
2023-03-07T15:42:55.291Z,53.68
2023-03-07T15:45:36.740Z,53.46
2023-03-07T15:48:22.462Z,54.13
2023-03-07T15:50:55.835Z,53.24
2023-03-07T15:53:42.723Z,53.82
2023-03-07T15:56:34.432Z,54.58
2023-03-07T15:59:05.502Z,54.28
2023-03-07T16:01:32.385Z,54.64
2023-03-07T16:04:01.564Z,54.40
2023-03-07T16:06:44.443Z,53.40
2023-03-07T16:09:16.589Z,53.81
2023-03-07T16:11:44.553Z,53.33
2023-03-07T16:14:23.402Z,52.89
2023-03-07T16:16:50.397Z,53.38
2023-03-07T16:19:17.032Z,54.05
2023-03-07T16:21:46.551Z,55.04
2023-03-07T16:24:13.189Z,54.60
2023-03-07T16:26:42.168Z,54.94
2023-03-07T16:29:17.886Z,54.13
2023-03-07T16:31:44.867Z,54.33
2023-03-07T16:34:20.249Z,54.17
2023-03-07T16:36:47.079Z,55.28
2023-03-07T16:39:14.500Z,56.21
2023-03-07T16:41:50.529Z,56.24
2023-03-07T16:44:20.743Z,55.78
2023-03-07T16:47:08.090Z,56.01
2023-03-07T16:49:37.767Z,55.38
2023-03-07T16:52:06.462Z,55.97
2023-03-07T16:54:34.046Z,56.92
2023-03-07T16:57:02.575Z,57.11
2023-03-07T16:59:37.134Z,56.55
2023-03-07T17:02:14.913Z,56.14
2023-03-07T17:04:43.840Z,56.36
2023-03-07T17:07:21.945Z,57.39
2023-03-07T17:09:49.065Z,55.77
2023-03-07T17:12:18.204Z,57.20
2023-03-07T17:14:45.022Z,56.39
2023-03-07T17:17:19.210Z,56.94
2023-03-07T17:19:45.797Z,57.18
2023-03-07T17:22:12.381Z,57.02
2023-03-07T17:24:39.116Z,57.84
2023-03-07T17:27:06.030Z,57.43
2023-03-07T17:29:38.179Z,57.67
2023-03-07T17:32:05.994Z,58.04
2023-03-07T17:34:34.717Z,58.45
2023-03-07T17:37:02.141Z,59.04
2023-03-07T17:39:33.201Z,58.67
2023-03-07T17:42:01.095Z,59.86
2023-03-07T17:44:28.721Z,59.03
2023-03-07T17:46:55.744Z,59.84
2023-03-07T17:49:22.841Z,58.38
2023-03-07T17:51:49.584Z,59.42
2023-03-07T17:54:20.067Z,58.81
2023-03-07T17:56:46.696Z,58.27
2023-03-07T17:59:13.217Z,58.75
2023-03-07T18:01:39.829Z,59.74
2023-03-07T18:04:08.880Z,59.33
2023-03-07T18:06:35.566Z,59.03
2023-03-07T18:09:03.781Z,59.80
2023-03-07T18:11:30.360Z,59.38
2023-03-07T18:14:00.171Z,60.62
2023-03-07T18:16:26.953Z,60.89
2023-03-07T18:18:59.323Z,60.22
2023-03-07T18:21:27.154Z,60.91
2023-03-07T18:23:57.153Z,61.61
2023-03-07T18:26:24.402Z,61.75
2023-03-07T18:28:51.504Z,60.94
2023-03-07T18:31:21.141Z,61.51
2023-03-07T18:33:50.090Z,61.56
2023-03-07T18:36:17.066Z,62.12
2023-03-07T18:38:44.135Z,62.29
2023-03-07T18:41:22.316Z,62.46
2023-03-07T18:43:52.701Z,62.50
2023-03-07T18:46:21.438Z,62.06
2023-03-07T18:48:48.454Z,62.59
2023-03-07T18:51:20.749Z,62.74
2023-03-07T18:53:47.255Z,63.28
2023-03-07T18:56:15.679Z,63.51
2023-03-07T18:58:45.099Z,63.58
2023-03-07T19:01:20.478Z,62.89
2023-03-07T19:03:49.168Z,63.64
2023-03-07T19:06:17.829Z,63.29
2023-03-07T19:08:44.892Z,63.54
2023-03-07T19:11:13.452Z,64.41
2023-03-07T19:13:40.816Z,64.16
2023-03-07T19:16:22.365Z,64.90
2023-03-07T19:18:49.819Z,64.96
2023-03-07T19:21:19.634Z,65.32
2023-03-07T19:23:47.091Z,65.59
2023-03-07T19:26:15.598Z,65.15
2023-03-07T19:28:42.709Z,66.63
2023-03-07T19:31:15.588Z,67.12
2023-03-07T19:33:43.096Z,67.22
2023-03-07T19:36:15.734Z,68.31
2023-03-07T19:38:43.157Z,68.71
2023-03-07T19:41:16.428Z,70.20
2023-03-07T19:43:43.280Z,71.76
2023-03-07T19:46:12.226Z,72.97
2023-03-07T19:48:48.641Z,72.57
2023-03-07T19:51:16.484Z,73.34
2023-03-07T19:53:51.124Z,74.23
2023-03-07T19:56:27.350Z,75.04
2023-03-07T19:58:57.883Z,74.90
2023-03-07T20:01:25.319Z,75.62
2023-03-07T20:03:52.048Z,74.98
2023-03-07T20:06:24.536Z,75.37
2023-03-07T20:09:15.567Z,76.82
2023-03-07T20:11:41.192Z,77.00
2023-03-07T20:14:08.162Z,75.69
2023-03-07T20:16:35.296Z,77.08
2023-03-07T20:19:07.392Z,76.54
2023-03-07T20:21:36.052Z,76.60
2023-03-07T20:24:06.692Z,76.64
2023-03-07T20:26:37.174Z,77.17
2023-03-07T20:29:07.744Z,78.21
2023-03-07T20:31:34.746Z,76.92
2023-03-07T20:34:01.780Z,77.62
2023-03-07T20:36:31.916Z,77.94
2023-03-07T20:39:01.050Z,77.37
2023-03-07T20:41:30.982Z,77.54
2023-03-07T20:44:00.280Z,77.92
2023-03-07T20:46:28.144Z,78.50
2023-03-07T20:48:58.744Z,79.22
2023-03-07T20:51:30.878Z,79.08
2023-03-07T20:54:00.075Z,78.74
2023-03-07T20:56:28.967Z,78.43
2023-03-07T20:58:56.867Z,78.17
2023-03-07T21:01:25.914Z,77.90
2023-03-07T21:03:52.977Z,78.72
2023-03-07T21:06:20.219Z,79.05
2023-03-07T21:08:49.600Z,78.73
2023-03-07T21:11:37.249Z,78.26
2023-03-07T21:14:04.343Z,78.12
2023-03-07T21:16:31.003Z,79.04
2023-03-07T21:19:01.970Z,78.99
2023-03-07T21:21:29.745Z,79.24
2023-03-07T21:23:56.694Z,79.45
2023-03-07T21:26:29.195Z,79.14
2023-03-07T21:28:56.906Z,79.42
2023-03-07T21:31:26.480Z,78.89
2023-03-07T21:33:56.014Z,79.23
2023-03-07T21:36:23.667Z,79.71
2023-03-07T21:38:50.315Z,79.67
2023-03-07T21:41:17.404Z,80.17
2023-03-07T21:43:47.015Z,80.01
2023-03-07T21:46:14.819Z,79.65
2023-03-07T21:48:43.980Z,79.56
2023-03-07T21:51:13.754Z,80.15
2023-03-07T21:53:46.075Z,80.34
2023-03-07T21:56:15.265Z,80.59
2023-03-07T21:58:44.753Z,79.65
2023-03-07T22:01:30.445Z,79.77
2023-03-07T22:04:02.965Z,80.45
2023-03-07T22:06:29.705Z,80.52
2023-03-07T22:08:56.380Z,80.27
2023-03-07T22:11:25.732Z,80.18
2023-03-07T22:13:52.297Z,80.58
2023-03-07T22:16:21.540Z,80.24
2023-03-07T22:18:55.657Z,79.96
2023-03-07T22:21:25.941Z,80.27
2023-03-07T22:23:54.382Z,80.67
2023-03-07T22:26:20.938Z,80.13
2023-03-07T22:28:47.577Z,80.73
2023-03-07T22:31:14.252Z,80.94
2023-03-07T22:33:41.645Z,80.61
2023-03-07T22:36:11.724Z,80.07
2023-03-07T22:38:38.610Z,80.42
2023-03-07T22:41:12.252Z,80.29
2023-03-07T22:43:39.121Z,79.78
2023-03-07T22:46:06.843Z,79.77
2023-03-07T22:48:34.220Z,79.50
2023-03-07T22:51:01.032Z,80.41
2023-03-07T22:53:29.416Z,79.66
2023-03-07T22:56:00.062Z,80.24
2023-03-07T22:58:29.929Z,79.79
2023-03-07T23:00:56.683Z,79.60
2023-03-07T23:03:23.440Z,79.68
2023-03-07T23:05:50.129Z,78.82
2023-03-07T23:08:16.799Z,79.21
2023-03-07T23:10:43.349Z,79.11
2023-03-07T23:13:09.932Z,79.23
2023-03-07T23:15:42.087Z,80.02
2023-03-07T23:18:11.667Z,79.43
2023-03-07T23:20:38.332Z,79.11
2023-03-07T23:23:05.116Z,79.45
2023-03-07T23:25:31.695Z,80.30
2023-03-07T23:27:58.251Z,80.19
2023-03-07T23:30:24.960Z,79.64
2023-03-07T23:32:51.532Z,79.55
2023-03-07T23:35:20.314Z,80.53
2023-03-07T23:37:48.386Z,79.92
2023-03-07T23:40:15.122Z,80.02
2023-03-07T23:42:41.782Z,81.14
2023-03-07T23:45:09.095Z,81.08
2023-03-07T23:47:41.335Z,81.14
2023-03-07T23:50:10.901Z,80.80
2023-03-07T23:52:37.596Z,81.48
2023-03-07T23:55:08.329Z,81.84
2023-03-07T23:57:35.962Z,80.60
